Middleburg, Ohio
Current Conditions -  °F | °C
As of 3:53 AM on Saturday 25 Oct 2014 (Local Time) from KMRT Reporting Station
Scattered Clouds Scattered Clouds  
Wind Chill: 44°   Ceiling: Unl
Heat Index: 44°   Visibility: 10mi
Dew Point: 38°   Wind: 3mph
Humidity: 81%   Direction: 240°WSW
Pressure: 29.99"   Gusts: NA
Location:  40.29°N, 83.58°W
Report Text: KMRT 250753Z AUTO 24003KT 10SM SCT090 07/04 A2999 RMK AO2 T00650035
Loading
Personal Weather Stations






























Interactive Weather Map
Tropical Storm Tracking
New forecast layout! Learn more

10-Day Weather Forecast

Advertisements
Track Severe Weather on mobile